Terminal Aerodrome Forecast
Issued by NWS

Home | Current Version | Previous Version | Text Only | Print | Product List | Glossary On
Versions: 1 2 3 4 5 6 7 8 9 10 11 12 13 14 15
000
FTUS46 KLOX 270900 AAA
TAFBUR
TAF AMD
KBUR 270900Z 2709/2806 VRB03KT 6SM HZ OVC010
     FM271700 15005KT P6SM SKC
     FM272100 18010KT P6SM SKC
     FM280300 16005KT P6SM SKC=

USA.gov is the U.S. government's official web portal to all federal, state and local government web resources and services.